createdAt,value
2017-10-05T00:03:20.906Z,1008.7
2017-10-05T00:13:32.209Z,1008.5
2017-10-05T00:23:46.691Z,1008.2
2017-10-05T00:34:31.548Z,1008.2
2017-10-05T00:44:45.565Z,1007.8
2017-10-05T00:54:59.649Z,1007.7
2017-10-05T01:05:14.248Z,1007.4
2017-10-05T01:15:28.298Z,1007.3
2017-10-05T01:25:42.387Z,1006.9
2017-10-05T01:35:56.736Z,1006.7
2017-10-05T01:46:10.738Z,1006.5
2017-10-05T01:56:21.894Z,1006.2
2017-10-05T02:06:36.161Z,1006.1
2017-10-05T02:16:47.725Z,1006.0
2017-10-05T02:27:01.729Z,1005.7
2017-10-05T02:37:16.233Z,1005.3
2017-10-05T02:47:30.124Z,1004.9
2017-10-05T02:57:44.487Z,1004.8
2017-10-05T03:07:58.720Z,1004.4
2017-10-05T03:18:43.376Z,1004.1
2017-10-05T03:28:57.759Z,1003.9
2017-10-05T03:39:42.139Z,1003.6
2017-10-05T03:49:55.367Z,1003.0
2017-10-05T04:00:08.953Z,1003.1
2017-10-05T04:10:22.777Z,1002.6
2017-10-05T04:20:36.137Z,1002.6
2017-10-05T04:31:20.787Z,1002.2
2017-10-05T04:41:35.265Z,1001.8
2017-10-05T04:51:49.513Z,1001.5
2017-10-05T05:02:03.746Z,1001.3
2017-10-05T05:12:48.573Z,1001.1
2017-10-05T05:23:34.896Z,1000.5
2017-10-05T05:33:49.811Z,1000.2
2017-10-05T05:44:03.277Z,1000.1
2017-10-05T05:54:16.903Z,999.6
2017-10-05T06:04:30.741Z,999.6
2017-10-05T06:14:44.336Z,999.6
2017-10-05T06:24:58.674Z,999.2
2017-10-05T06:35:12.519Z,999.0
2017-10-05T06:45:25.924Z,998.9
2017-10-05T06:55:39.951Z,998.5
2017-10-05T07:05:53.517Z,998.4
2017-10-05T07:16:07.681Z,998.2
2017-10-05T07:26:21.882Z,998.1
2017-10-05T07:36:35.972Z,997.7
2017-10-05T07:46:59.119Z,997.3
2017-10-05T07:57:13.762Z,997.6
2017-10-05T08:07:58.526Z,997.3
2017-10-05T08:18:43.263Z,997.4
2017-10-05T08:29:30.906Z,997.1
2017-10-05T08:39:45.580Z,997.3
2017-10-05T08:50:02.284Z,997.0
2017-10-05T09:00:16.332Z,997.0
2017-10-05T09:10:27.600Z,996.9
2017-10-05T09:20:41.958Z,997.4
2017-10-05T09:30:56.036Z,997.6
2017-10-05T09:41:10.322Z,998.2
2017-10-05T09:51:24.324Z,998.4
2017-10-05T10:01:38.593Z,998.5
2017-10-05T10:11:52.746Z,998.9
2017-10-05T10:22:06.456Z,999.4
2017-10-05T10:32:20.404Z,1000.1
2017-10-05T10:42:34.477Z,1000.6
2017-10-05T10:52:45.647Z,1000.9
2017-10-05T11:02:59.767Z,1001.4
2017-10-05T11:13:11.157Z,1001.6
2017-10-05T11:23:25.466Z,1002.1
2017-10-05T11:33:39.569Z,1002.5
2017-10-05T11:43:53.695Z,1003.0
2017-10-05T11:54:09.066Z,1003.0
2017-10-05T12:04:23.016Z,1003.0
2017-10-05T12:14:36.454Z,1004.3
2017-10-05T12:24:50.570Z,1004.4
2017-10-05T12:35:04.867Z,1003.7
2017-10-05T12:45:18.953Z,1004.7
2017-10-05T12:55:30.275Z,1005.1
2017-10-05T13:05:46.021Z,1005.1
2017-10-05T13:16:07.227Z,1005.1
2017-10-05T13:26:23.474Z,1005.0
2017-10-05T13:36:40.630Z,1004.5
2017-10-05T13:46:56.880Z,1005.1
2017-10-05T13:57:14.199Z,1004.8
2017-10-05T14:07:33.458Z,1005.4
2017-10-05T14:17:47.650Z,1005.5
2017-10-05T14:28:04.138Z,1006.0
2017-10-05T14:38:22.265Z,1006.3
2017-10-05T14:48:35.893Z,1008.7
2017-10-05T14:58:50.175Z,1005.6
2017-10-05T15:09:03.930Z,1005.7
2017-10-05T15:19:18.188Z,1006.0
2017-10-05T15:29:32.868Z,1006.2
2017-10-05T15:39:46.902Z,1006.5
2017-10-05T15:50:01.194Z,1006.5
2017-10-05T16:00:15.015Z,1007.1
2017-10-05T16:10:29.216Z,1007.3
2017-10-05T16:20:43.478Z,1007.2
2017-10-05T16:30:54.977Z,1007.5
2017-10-05T16:41:09.330Z,1007.7
2017-10-05T16:51:23.246Z,1007.8
2017-10-05T17:01:37.244Z,1008.0
2017-10-05T17:11:51.698Z,1008.1
2017-10-05T17:22:05.662Z,1008.3
2017-10-05T17:32:19.199Z,1008.4
2017-10-05T17:42:33.190Z,1008.6
2017-10-05T17:52:53.007Z,1008.8
2017-10-05T18:03:07.118Z,1008.8
2017-10-05T18:13:21.559Z,1009.0
2017-10-05T18:23:36.603Z,1009.1
2017-10-05T18:33:54.914Z,1009.2
2017-10-05T18:44:09.776Z,1009.2
2017-10-05T18:54:25.719Z,1009.3
2017-10-05T19:04:47.082Z,1009.4
2017-10-05T19:15:02.286Z,1009.4
2017-10-05T19:25:20.194Z,1009.5
2017-10-05T19:36:10.992Z,1009.5
2017-10-05T19:46:30.673Z,1009.6
2017-10-05T19:56:46.221Z,1009.7
2017-10-05T20:07:08.833Z,1009.8
2017-10-05T20:17:27.356Z,1009.8
2017-10-05T20:27:41.629Z,1010.0
2017-10-05T20:37:55.549Z,1010.0
2017-10-05T20:48:09.817Z,1010.0
2017-10-05T20:58:24.290Z,1009.9
2017-10-05T21:08:38.397Z,1009.9
2017-10-05T21:18:52.628Z,1009.9
2017-10-05T21:29:06.974Z,1009.9
2017-10-05T21:39:20.971Z,1009.9
2017-10-05T21:49:35.367Z,1010.0
2017-10-05T21:59:49.354Z,1010.0
2017-10-05T22:10:01.529Z,1010.0
2017-10-05T22:20:15.822Z,1010.0
2017-10-05T22:30:30.354Z,1010.1
2017-10-05T22:41:22.943Z,1010.1
2017-10-05T22:51:37.250Z,1010.1
2017-10-05T23:01:51.471Z,1010.1
2017-10-05T23:12:05.570Z,1010.0
2017-10-05T23:22:19.820Z,1009.9
2017-10-05T23:32:33.736Z,1010.0
2017-10-05T23:42:48.757Z,1010.0
2017-10-05T23:53:02.453Z,1010.0
